Time;durP1;ratioP1;P1;durP2;ratioP2;P2;SDS_P1;SDS_P2;PMS_P1;PMS_P2;Temp;Humidity;BMP_temperature;BMP_pressure;BME280_temperature;BME280_humidity;BME280_pressure;Samples;Min_cycle;Max_cycle;Signal;HPM_P1;HPM_P2
2023/05/31 00:00:04;;;;;;;10.15;8.13;;;;;;;-140.66;100.00;55571.53;5134784;28;20031;-73
2023/05/31 00:02:50;;;;;;;12.57;7.68;;;;;;;-140.66;100.00;55571.53;5126030;28;20019;-75
2023/05/31 00:05:35;;;;;;;13.98;8.57;;;;;;;-140.66;100.00;55571.53;5119527;28;20023;-75
2023/05/31 00:08:21;;;;;;;10.27;8.02;;;;;;;-140.66;100.00;55571.53;5103408;28;20401;-76
2023/05/31 00:11:07;;;;;;;11.60;7.80;;;;;;;-140.66;100.00;55571.53;5115075;28;20490;-75
2023/05/31 00:13:53;;;;;;;12.98;7.97;;;;;;;-140.66;100.00;55571.53;5101613;28;20039;-75
2023/05/31 00:16:39;;;;;;;9.50;7.80;;;;;;;-140.66;100.00;55571.53;5115546;28;20118;-75
2023/05/31 00:19:24;;;;;;;11.65;7.53;;;;;;;-140.66;100.00;55571.53;5116985;28;20015;-77
2023/05/31 00:22:10;;;;;;;9.55;7.53;;;;;;;-140.66;100.00;55571.53;5120009;28;20065;-75
2023/05/31 00:24:56;;;;;;;12.75;7.72;;;;;;;-140.66;100.00;55571.53;5116646;28;20034;-75
2023/05/31 00:27:42;;;;;;;11.40;7.80;;;;;;;-140.66;100.00;55571.53;5115125;28;20110;-76
2023/05/31 00:30:27;;;;;;;11.43;7.75;;;;;;;-140.66;100.00;55571.53;5115253;28;20320;-76
2023/05/31 00:33:13;;;;;;;12.98;7.95;;;;;;;-140.66;100.00;55571.53;5114925;28;20386;-75
2023/05/31 00:35:59;;;;;;;10.98;7.70;;;;;;;-140.66;100.00;55571.53;5115381;28;20035;-75
2023/05/31 00:38:45;;;;;;;11.25;7.72;;;;;;;-140.66;100.00;55571.53;5114443;28;20051;-75
2023/05/31 00:41:30;;;;;;;12.32;7.90;;;;;;;-140.66;100.00;55571.53;5114484;28;20019;-75
2023/05/31 00:44:16;;;;;;;8.48;7.38;;;;;;;-140.66;100.00;55571.53;5114488;28;20055;-76
2023/05/31 00:47:02;;;;;;;10.75;8.13;;;;;;;-140.66;100.00;55571.53;5114687;28;20023;-76
2023/05/31 00:49:48;;;;;;;13.13;7.90;;;;;;;-140.66;100.00;55571.53;5099988;28;20024;-75
2023/05/31 00:52:34;;;;;;;14.02;7.90;;;;;;;-140.66;100.00;55571.53;5114624;28;20027;-75
2023/05/31 00:55:21;;;;;;;14.20;7.63;;;;;;;-140.66;100.00;55571.53;5099044;28;20028;-76
2023/05/31 00:58:08;;;;;;;13.20;8.77;;;;;;;-140.66;100.00;55571.53;5113424;28;20042;-76
2023/05/31 01:00:55;;;;;;;11.40;8.20;;;;;;;-140.66;100.00;55571.53;5114194;28;20119;-75
2023/05/31 01:03:41;;;;;;;11.48;8.20;;;;;;;-140.66;100.00;55571.53;5114815;28;20359;-76
2023/05/31 01:06:31;;;;;;;10.25;8.10;;;;;;;-140.66;100.00;55571.53;5114571;28;20102;-75
2023/05/31 01:09:18;;;;;;;12.10;8.38;;;;;;;-140.66;100.00;55571.53;5114787;28;20019;-76
2023/05/31 01:12:11;;;;;;;10.85;8.38;;;;;;;-140.66;100.00;55571.53;5099545;28;20188;-76
2023/05/31 01:15:01;;;;;;;15.02;8.68;;;;;;;-140.66;100.00;55571.53;5099285;28;20455;-75
2023/05/31 01:17:49;;;;;;;15.13;9.23;;;;;;;-140.66;100.00;55571.53;5115153;28;20050;-76
2023/05/31 01:20:38;;;;;;;10.45;8.90;;;;;;;-140.66;100.00;55571.53;5114376;28;20023;-75
2023/05/31 01:23:39;;;;;;;13.45;9.05;;;;;;;-140.66;100.00;55571.53;5114398;28;20122;-75
2023/05/31 01:26:44;;;;;;;28.23;10.07;;;;;;;-140.66;100.00;55571.53;5100139;28;20028;-76
2023/05/31 01:29:33;;;;;;;16.40;9.82;;;;;;;-140.66;100.00;55571.53;5099162;28;20070;-75
2023/05/31 01:32:21;;;;;;;12.77;9.02;;;;;;;-140.66;100.00;55571.53;5100344;28;20448;-76
2023/05/31 01:35:07;;;;;;;13.05;9.38;;;;;;;-140.66;100.00;55571.53;5114693;28;20074;-76
2023/05/31 01:37:53;;;;;;;13.02;9.52;;;;;;;-140.66;100.00;55571.53;5099553;28;20042;-76
2023/05/31 01:40:39;;;;;;;13.75;9.82;;;;;;;-140.66;100.00;55571.53;5099371;28;20077;-75
2023/05/31 01:43:26;;;;;;;13.10;9.60;;;;;;;-140.66;100.00;55571.53;5114179;28;20016;-75
2023/05/31 01:46:16;;;;;;;17.27;9.68;;;;;;;-140.66;100.00;55571.53;5099752;28;20444;-75
2023/05/31 01:49:02;;;;;;;11.18;8.80;;;;;;;-140.66;100.00;55571.53;5114156;28;20438;-75
2023/05/31 01:51:49;;;;;;;14.70;9.65;;;;;;;-140.66;100.00;55571.53;5098563;28;20024;-76
2023/05/31 01:54:36;;;;;;;15.50;9.23;;;;;;;-140.66;100.00;55571.53;5101064;28;20027;-77
2023/05/31 01:57:22;;;;;;;17.30;9.65;;;;;;;-140.66;100.00;55571.53;5103467;28;20050;-76
2023/05/31 02:00:11;;;;;;;15.35;10.13;;;;;;;-140.66;100.00;55571.53;5118359;28;20035;-76
2023/05/31 02:02:57;;;;;;;12.38;9.07;;;;;;;-140.66;100.00;55571.53;5117849;28;20073;-75
2023/05/31 02:05:58;;;;;;;14.65;10.32;;;;;;;-140.66;100.00;55571.53;5103951;28;20019;-75
2023/05/31 02:08:44;;;;;;;16.77;10.45;;;;;;;-140.66;100.00;55571.53;5116646;28;20070;-75
2023/05/31 02:11:30;;;;;;;16.00;10.15;;;;;;;-140.66;100.00;55571.53;5116376;28;20526;-76
2023/05/31 02:14:16;;;;;;;11.25;9.77;;;;;;;-140.66;100.00;55571.53;5101460;28;20127;-75
2023/05/31 02:17:02;;;;;;;14.10;9.90;;;;;;;-140.66;100.00;55571.53;5102517;28;20124;-76
2023/05/31 02:19:47;;;;;;;15.38;10.27;;;;;;;-140.66;100.00;55571.53;5117852;28;20027;-76
2023/05/31 02:22:33;;;;;;;17.75;10.57;;;;;;;-140.66;100.00;55571.53;5116297;28;20031;-76
2023/05/31 02:25:19;;;;;;;14.48;10.23;;;;;;;-140.66;100.00;55571.53;5117820;28;20027;-75
2023/05/31 02:28:05;;;;;;;16.67;10.25;;;;;;;-140.66;100.00;55571.53;5116496;28;20076;-75
2023/05/31 02:30:59;;;;;;;13.30;10.30;;;;;;;-140.66;100.00;55571.53;5123020;28;20045;-76
2023/05/31 02:33:44;;;;;;;16.58;10.90;;;;;;;-140.66;100.00;55571.53;5132494;28;20448;-75
2023/05/31 02:36:30;;;;;;;15.45;10.23;;;;;;;-140.66;100.00;55571.53;5103253;28;20072;-75
2023/05/31 02:39:16;;;;;;;14.93;10.82;;;;;;;-140.66;100.00;55571.53;5103744;28;20349;-76
2023/05/31 02:42:02;;;;;;;14.63;10.65;;;;;;;-140.66;100.00;55571.53;5117655;28;20019;-76
2023/05/31 02:44:47;;;;;;;15.52;10.10;;;;;;;-140.66;100.00;55571.53;5102844;28;20023;-76
2023/05/31 02:47:35;;;;;;;16.45;9.77;;;;;;;-140.66;100.00;55571.53;5117581;28;20363;-75
2023/05/31 02:50:20;;;;;;;14.15;10.20;;;;;;;-140.66;100.00;55571.53;5113876;28;20020;-75
2023/05/31 02:53:06;;;;;;;12.93;9.68;;;;;;;-140.66;100.00;55571.53;5123557;28;20024;-76
2023/05/31 02:55:52;;;;;;;15.25;9.95;;;;;;;-140.66;100.00;55571.53;5101327;28;20023;-76
2023/05/31 02:58:38;;;;;;;12.98;9.00;;;;;;;-140.66;100.00;55571.53;5115188;28;20037;-76
2023/05/31 03:01:24;;;;;;;16.08;9.82;;;;;;;-140.66;100.00;55571.53;5102939;28;20050;-76
2023/05/31 03:04:09;;;;;;;11.63;9.40;;;;;;;-140.66;100.00;55571.53;5116312;28;20023;-77
2023/05/31 03:06:55;;;;;;;16.30;9.10;;;;;;;-140.66;100.00;55571.53;5116389;28;20062;-77
2023/05/31 03:09:44;;;;;;;13.70;9.40;;;;;;;-140.66;100.00;55571.53;5117307;28;20038;-75
2023/05/31 03:12:31;;;;;;;14.02;8.43;;;;;;;-140.66;100.00;55571.53;5100723;28;20044;-76
2023/05/31 03:15:17;;;;;;;11.68;9.05;;;;;;;-140.66;100.00;55571.53;5116535;28;20027;-77
2023/05/31 03:18:03;;;;;;;14.98;8.55;;;;;;;-140.66;100.00;55571.53;5116578;28;20035;-76
2023/05/31 03:20:49;;;;;;;14.27;9.18;;;;;;;-140.66;100.00;55571.53;5116328;28;20460;-76
2023/05/31 03:23:35;;;;;;;11.70;8.70;;;;;;;-140.66;100.00;55571.53;5102647;28;20031;-76
2023/05/31 03:26:20;;;;;;;14.45;9.65;;;;;;;-140.66;100.00;55571.53;5117329;28;20103;-75
2023/05/31 03:29:06;;;;;;;14.20;8.52;;;;;;;-140.66;100.00;55571.53;5116491;28;20450;-76
2023/05/31 03:31:52;;;;;;;16.70;9.02;;;;;;;-140.66;100.00;55571.53;5116221;28;20024;-76
2023/05/31 03:34:38;;;;;;;19.27;9.40;;;;;;;-140.66;100.00;55571.53;5115444;28;20047;-76
2023/05/31 03:37:23;;;;;;;14.23;9.05;;;;;;;-140.66;100.00;55571.53;5115043;28;20023;-76
2023/05/31 03:40:09;;;;;;;10.93;8.02;;;;;;;-140.66;100.00;55571.53;5116209;28;20061;-76
2023/05/31 03:42:55;;;;;;;15.25;9.10;;;;;;;-140.66;100.00;55571.53;5116502;28;20027;-76
2023/05/31 03:45:41;;;;;;;14.35;9.00;;;;;;;-140.66;100.00;55571.53;5115875;28;20058;-76
2023/05/31 03:48:27;;;;;;;14.43;9.00;;;;;;;-140.66;100.00;55571.53;5101119;28;20024;-76
2023/05/31 03:51:13;;;;;;;13.98;9.40;;;;;;;-140.66;100.00;55571.53;5115087;28;20020;-75
2023/05/31 03:53:59;;;;;;;13.55;9.18;;;;;;;-140.66;100.00;55571.53;5114767;28;20028;-75
2023/05/31 03:56:45;;;;;;;13.85;9.98;;;;;;;-140.66;100.00;55571.53;5115561;28;20383;-77
2023/05/31 03:59:30;;;;;;;14.88;9.85;;;;;;;-140.66;100.00;55571.53;5101237;28;20023;-75
2023/05/31 04:02:16;;;;;;;19.17;10.10;;;;;;;-140.66;100.00;55571.53;5102367;28;20077;-75
2023/05/31 04:05:03;;;;;;;15.27;9.77;;;;;;;-140.66;100.00;55571.53;5100616;28;20436;-76
2023/05/31 04:07:50;;;;;;;15.98;10.65;;;;;;;-140.66;100.00;55571.53;5115530;28;20031;-76
2023/05/31 04:10:35;;;;;;;12.55;8.98;;;;;;;-140.66;100.00;55571.53;5123701;27;20054;-85
2023/05/31 04:13:21;;;;;;;15.55;9.82;;;;;;;-140.66;100.00;55571.53;5135709;27;20074;-83
2023/05/31 04:16:07;;;;;;;17.17;10.38;;;;;;;-140.66;100.00;55571.53;5122707;28;20032;-84
2023/05/31 04:18:52;;;;;;;16.23;10.30;;;;;;;-140.66;100.00;55571.53;5125349;28;20325;-86
2023/05/31 04:21:40;;;;;;;11.57;9.20;;;;;;;-140.66;100.00;55571.53;5108882;28;20165;-85
2023/05/31 04:24:26;;;;;;;13.70;10.02;;;;;;;-140.66;100.00;55571.53;5122956;28;20027;-88
2023/05/31 04:27:18;;;;;;;16.92;9.75;;;;;;;-140.66;100.00;55571.53;5113881;28;20024;-86
2023/05/31 04:30:05;;;;;;;13.00;9.80;;;;;;;-140.66;100.00;55571.53;5126975;28;20058;-86
2023/05/31 04:32:52;;;;;;;13.73;9.60;;;;;;;-140.66;100.00;55571.53;5110857;28;20028;-87
2023/05/31 04:35:38;;;;;;;14.27;9.73;;;;;;;-140.66;100.00;55571.53;5111583;28;20095;-87
2023/05/31 04:38:27;;;;;;;14.32;9.00;;;;;;;-140.66;100.00;55571.53;5112781;28;20035;-86
2023/05/31 04:41:15;;;;;;;15.88;9.15;;;;;;;-140.66;100.00;55571.53;5121723;28;20028;-86
2023/05/31 04:44:01;;;;;;;14.13;10.07;;;;;;;-140.66;100.00;55571.53;5129504;28;20023;-86
2023/05/31 04:46:46;;;;;;;20.08;10.57;;;;;;;-140.66;100.00;55571.53;5112635;28;20019;-85
2023/05/31 04:49:32;;;;;;;15.30;8.80;;;;;;;-140.66;100.00;55571.53;5112523;28;20023;-87
2023/05/31 04:52:18;;;;;;;11.30;9.38;;;;;;;-140.66;100.00;55571.53;5132131;28;20122;-86
2023/05/31 04:55:04;;;;;;;18.50;9.20;;;;;;;-140.66;100.00;55571.53;5132690;28;20047;-87
2023/05/31 04:57:49;;;;;;;14.23;9.48;;;;;;;-140.66;100.00;55571.53;5115241;28;20079;-87
2023/05/31 05:00:36;;;;;;;14.23;9.30;;;;;;;-140.66;100.00;55571.53;5132911;28;20047;-86
2023/05/31 05:03:22;;;;;;;20.20;9.77;;;;;;;-140.66;100.00;55571.53;5116021;28;20020;-86
2023/05/31 05:06:27;;;;;;;15.13;10.10;;;;;;;-140.66;100.00;55571.53;5126079;28;20019;-87
2023/05/31 05:09:13;;;;;;;15.05;10.02;;;;;;;-140.66;100.00;55571.53;5112759;28;20036;-86
2023/05/31 05:12:00;;;;;;;18.08;10.85;;;;;;;-140.66;100.00;55571.53;5127794;28;20040;-85
2023/05/31 05:14:46;;;;;;;17.13;10.60;;;;;;;-140.66;100.00;55571.53;5128074;28;20036;-86
2023/05/31 05:17:32;;;;;;;22.50;12.43;;;;;;;-140.66;100.00;55571.53;5114047;28;20023;-87
2023/05/31 05:20:19;;;;;;;18.92;11.57;;;;;;;-140.66;100.00;55571.53;5117890;28;20079;-85
2023/05/31 05:23:07;;;;;;;17.60;12.35;;;;;;;-140.66;100.00;55571.53;5133039;28;20051;-80
2023/05/31 05:25:52;;;;;;;20.05;13.13;;;;;;;-140.66;100.00;55571.53;5114165;28;20028;-75
2023/05/31 05:28:38;;;;;;;19.60;11.85;;;;;;;-140.66;100.00;55571.53;5117035;28;20116;-75
2023/05/31 05:31:24;;;;;;;21.10;12.68;;;;;;;-140.66;100.00;55571.53;5103101;28;20489;-77
2023/05/31 05:34:09;;;;;;;38.78;14.55;;;;;;;-140.66;100.00;55571.53;5118382;28;20108;-78
2023/05/31 05:36:57;;;;;;;19.25;12.10;;;;;;;-140.66;100.00;55571.53;5117463;28;20024;-78
2023/05/31 05:39:42;;;;;;;14.48;10.38;;;;;;;-140.66;100.00;55571.53;5117756;28;20057;-78
2023/05/31 05:42:30;;;;;;;16.60;11.05;;;;;;;-140.66;100.00;55571.53;5118445;28;20020;-78
2023/05/31 05:45:16;;;;;;;15.05;10.63;;;;;;;-140.66;100.00;55571.53;5117307;28;20118;-78
2023/05/31 05:48:02;;;;;;;18.02;11.38;;;;;;;-140.66;100.00;55571.53;5118889;28;20157;-78
2023/05/31 05:50:48;;;;;;;16.50;11.00;;;;;;;-140.66;100.00;55571.53;5118661;28;20514;-79
2023/05/31 05:53:33;;;;;;;16.58;10.95;;;;;;;-140.66;100.00;55571.53;5104628;28;20456;-79
2023/05/31 05:56:19;;;;;;;18.85;10.50;;;;;;;-140.66;100.00;55571.53;5118410;28;20035;-79
2023/05/31 05:59:05;;;;;;;21.40;10.18;;;;;;;-140.66;100.00;55571.53;5132917;28;20023;-77
2023/05/31 06:01:51;;;;;;;17.35;10.57;;;;;;;-140.66;100.00;55571.53;5121006;28;20051;-75
2023/05/31 06:04:37;;;;;;;17.60;10.05;;;;;;;-140.66;100.00;55571.53;5128005;28;20333;-77
2023/05/31 06:07:23;;;;;;;15.57;10.68;;;;;;;-140.66;100.00;55571.53;5132224;28;20035;-76
2023/05/31 06:10:09;;;;;;;18.00;9.82;;;;;;;-140.66;100.00;55571.53;5120605;28;20020;-76
2023/05/31 06:12:54;;;;;;;19.50;10.15;;;;;;;-140.66;100.00;55571.53;5125431;28;20054;-77
2023/05/31 06:15:41;;;;;;;13.52;10.18;;;;;;;-140.66;100.00;55571.53;5119473;28;20023;-77
2023/05/31 06:18:26;;;;;;;16.08;10.00;;;;;;;-140.66;100.00;55571.53;5101953;28;20112;-79
2023/05/31 06:21:12;;;;;;;18.10;10.07;;;;;;;-140.66;100.00;55571.53;5118476;28;20023;-79
2023/05/31 06:23:58;;;;;;;21.00;10.20;;;;;;;-140.66;100.00;55571.53;5102653;28;20114;-78
2023/05/31 06:26:43;;;;;;;16.52;10.48;;;;;;;-140.66;100.00;55571.53;5117897;28;20032;-78
2023/05/31 06:29:29;;;;;;;16.30;10.55;;;;;;;-140.66;100.00;55571.53;5119833;28;20024;-76
2023/05/31 06:32:15;;;;;;;14.48;9.88;;;;;;;-140.66;100.00;55571.53;5112150;28;20012;-79
2023/05/31 06:35:00;;;;;;;19.55;10.00;;;;;;;-140.66;100.00;55571.53;5130244;28;20027;-79
2023/05/31 06:37:47;;;;;;;15.48;9.82;;;;;;;-140.66;100.00;55571.53;5102594;28;20031;-79
2023/05/31 06:40:36;;;;;;;18.58;10.05;;;;;;;-140.66;100.00;55571.53;5116317;28;20119;-79
2023/05/31 06:43:21;;;;;;;16.63;9.20;;;;;;;-140.66;100.00;55571.53;5102287;28;20019;-78
2023/05/31 06:46:10;;;;;;;16.63;10.23;;;;;;;-140.66;100.00;55571.53;5102787;28;20452;-78
2023/05/31 06:48:56;;;;;;;24.67;10.77;;;;;;;-140.66;100.00;55571.53;5117227;28;20031;-79
2023/05/31 06:51:41;;;;;;;17.33;10.40;;;;;;;-140.66;100.00;55571.53;5102708;28;20096;-79
2023/05/31 06:54:28;;;;;;;15.90;9.55;;;;;;;-140.66;100.00;55571.53;5116878;28;20020;-79
2023/05/31 06:57:14;;;;;;;17.42;10.20;;;;;;;-140.66;100.00;55571.53;5102563;28;20110;-80
2023/05/31 06:59:59;;;;;;;18.02;9.60;;;;;;;-140.66;100.00;55571.53;5103849;28;20046;-85
2023/05/31 07:02:45;;;;;;;21.33;9.65;;;;;;;-140.66;100.00;55571.53;5137090;28;20034;-86
2023/05/31 07:05:31;;;;;;;13.63;8.60;;;;;;;-140.66;100.00;55571.53;5121929;28;20007;-86
2023/05/31 07:08:18;;;;;;;16.50;8.65;;;;;;;-140.66;100.00;55571.53;5135497;28;20027;-86
2023/05/31 07:11:06;;;;;;;14.27;8.05;;;;;;;-140.66;100.00;55571.53;5132071;28;20044;-86
2023/05/31 07:13:59;;;;;;;16.38;8.55;;;;;;;-140.66;100.00;55571.53;5119581;28;20035;-85
2023/05/31 07:16:45;;;;;;;19.25;9.88;;;;;;;-140.66;100.00;55571.53;5118439;28;20353;-86
2023/05/31 07:19:31;;;;;;;24.60;10.07;;;;;;;-140.66;100.00;55571.53;5115160;28;20028;-86
2023/05/31 07:22:17;;;;;;;22.80;9.70;;;;;;;-140.66;100.00;55571.53;5132958;28;20019;-85
2023/05/31 07:25:04;;;;;;;21.92;10.27;;;;;;;-140.66;100.00;55571.53;5136518;28;20020;-86
2023/05/31 07:27:50;;;;;;;22.45;9.27;;;;;;;-140.66;100.00;55571.53;5137679;27;20024;-85
2023/05/31 07:30:35;;;;;;;16.02;9.00;;;;;;;-140.66;100.00;55571.53;5123323;28;20038;-86
2023/05/31 07:33:21;;;;;;;16.45;8.40;;;;;;;-140.66;100.00;55571.53;5138218;28;20058;-85
2023/05/31 07:36:07;;;;;;;13.48;7.47;;;;;;;-140.66;100.00;55571.53;5133711;28;20023;-87
2023/05/31 07:38:53;;;;;;;14.73;8.18;;;;;;;-140.66;100.00;55571.53;5129181;28;20031;-86
2023/05/31 07:41:39;;;;;;;16.20;7.53;;;;;;;-140.66;100.00;55571.53;5115203;28;20034;-86
2023/05/31 07:44:25;;;;;;;14.18;7.80;;;;;;;-140.66;100.00;55571.53;5120417;28;20031;-86
2023/05/31 07:47:10;;;;;;;15.85;6.50;;;;;;;-140.66;100.00;55571.53;5135613;28;20089;-85
2023/05/31 07:49:56;;;;;;;15.02;6.30;;;;;;;-140.66;100.00;55571.53;5127194;28;20039;-86
2023/05/31 07:52:46;;;;;;;10.48;6.38;;;;;;;-140.66;100.00;55571.53;5117433;28;20042;-86
2023/05/31 07:55:32;;;;;;;9.18;6.15;;;;;;;-140.66;100.00;55571.53;5120588;28;20087;-87
2023/05/31 07:58:17;;;;;;;17.10;6.10;;;;;;;-140.66;100.00;55571.53;5121069;28;20053;-86
2023/05/31 08:01:03;;;;;;;10.88;5.78;;;;;;;-140.66;100.00;55571.53;5119143;28;20053;-88
2023/05/31 08:03:50;;;;;;;9.32;5.68;;;;;;;-140.66;100.00;55571.53;5116682;28;20035;-86
2023/05/31 08:06:36;;;;;;;8.77;5.90;;;;;;;-140.66;100.00;55571.53;5134303;28;20337;-86
2023/05/31 08:09:22;;;;;;;39.22;7.40;;;;;;;-140.66;100.00;55571.53;5116501;28;20027;-85
2023/05/31 08:12:08;;;;;;;9.52;5.70;;;;;;;-140.66;100.00;55571.53;5112537;28;20418;-87
2023/05/31 08:14:54;;;;;;;11.65;5.82;;;;;;;-140.66;100.00;55571.53;5127711;28;20027;-85
2023/05/31 08:17:41;;;;;;;12.73;6.13;;;;;;;-140.66;100.00;55571.53;5124779;28;20024;-85
2023/05/31 08:20:27;;;;;;;11.02;6.40;;;;;;;-140.66;100.00;55571.53;5127191;28;20024;-86
2023/05/31 08:23:20;;;;;;;9.73;5.60;;;;;;;-140.66;100.00;55571.53;5124247;28;20028;-87
2023/05/31 08:26:06;;;;;;;9.30;5.47;;;;;;;-140.66;100.00;55571.53;5113154;28;20028;-85
2023/05/31 08:28:51;;;;;;;11.00;5.80;;;;;;;-140.66;100.00;55571.53;5109451;28;20027;-86
2023/05/31 08:31:37;;;;;;;10.25;5.80;;;;;;;-140.66;100.00;55571.53;5107211;28;20039;-86
2023/05/31 08:34:23;;;;;;;13.23;5.97;;;;;;;-140.66;100.00;55571.53;5128076;28;20023;-86
2023/05/31 08:37:09;;;;;;;22.92;8.10;;;;;;;-140.66;100.00;55571.53;5114764;28;20074;-85
2023/05/31 08:39:55;;;;;;;18.27;5.90;;;;;;;-140.66;100.00;55571.53;5114003;28;20095;-85
2023/05/31 08:43:15;;;;;;;20.98;6.57;;;;;;;-140.66;100.00;55571.53;5129151;28;20068;-85
2023/05/31 08:46:03;;;;;;;13.43;6.10;;;;;;;-140.66;100.00;55571.53;5131626;28;20036;-85
2023/05/31 08:49:08;;;;;;;12.63;5.85;;;;;;;-140.66;100.00;55571.53;5131053;28;20020;-83
2023/05/31 08:51:56;;;;;;;8.20;6.00;;;;;;;-140.66;100.00;55571.53;5131415;28;20024;-84
2023/05/31 08:54:43;;;;;;;9.60;6.28;;;;;;;-140.66;100.00;55571.53;5120476;28;20028;-85
2023/05/31 08:57:30;;;;;;;10.90;5.93;;;;;;;-140.66;100.00;55571.53;5110460;28;20023;-86
2023/05/31 09:00:18;;;;;;;10.63;6.28;;;;;;;-140.66;100.00;55571.53;5128053;28;20032;-86
2023/05/31 09:03:06;;;;;;;21.48;6.05;;;;;;;-140.66;100.00;55571.53;5122037;28;20016;-85
2023/05/31 09:05:54;;;;;;;30.42;6.60;;;;;;;-140.66;100.00;55571.53;5106439;28;20023;-86
2023/05/31 09:08:41;;;;;;;11.88;5.90;;;;;;;-140.66;100.00;55571.53;5119472;28;20032;-84
2023/05/31 09:11:27;;;;;;;8.65;5.00;;;;;;;-140.66;100.00;55571.53;5118679;28;20051;-85
2023/05/31 09:14:14;;;;;;;9.07;5.63;;;;;;;-140.66;100.00;55571.53;5103899;28;20043;-85
2023/05/31 09:17:00;;;;;;;12.52;5.07;;;;;;;-140.66;100.00;55571.53;5102985;28;20096;-86
2023/05/31 09:19:52;;;;;;;10.02;4.88;;;;;;;-140.66;100.00;55571.53;5102133;28;20027;-85
2023/05/31 09:22:38;;;;;;;19.98;5.32;;;;;;;-140.66;100.00;55571.53;5122797;28;20016;-85
2023/05/31 09:25:23;;;;;;;13.55;5.20;;;;;;;-140.66;100.00;55571.53;5111784;28;20558;-85
2023/05/31 09:28:10;;;;;;;13.23;5.13;;;;;;;-140.66;100.00;55571.53;5124635;28;20031;-86
2023/05/31 09:31:03;;;;;;;17.95;4.88;;;;;;;-140.66;100.00;55571.53;5125230;28;20042;-85
2023/05/31 09:33:54;;;;;;;6.70;3.95;;;;;;;-140.66;100.00;55571.53;5128199;28;20036;-85
2023/05/31 09:36:42;;;;;;;8.93;4.43;;;;;;;-140.66;100.00;55571.53;5130028;28;20023;-85
2023/05/31 09:39:28;;;;;;;13.45;4.47;;;;;;;-140.66;100.00;55571.53;5133891;28;20034;-85
2023/05/31 09:42:14;;;;;;;6.78;4.20;;;;;;;-140.66;100.00;55571.53;5130704;28;20020;-86
2023/05/31 09:45:00;;;;;;;10.77;4.32;;;;;;;-140.66;100.00;55571.53;5120783;28;20023;-84
2023/05/31 09:47:47;;;;;;;6.93;4.28;;;;;;;-140.66;100.00;55571.53;5123672;28;20011;-85
2023/05/31 09:50:33;;;;;;;8.38;4.18;;;;;;;-140.66;100.00;55571.53;5112254;28;20024;-84
2023/05/31 09:53:18;;;;;;;9.95;4.25;;;;;;;-140.66;100.00;55571.53;5124331;28;20023;-85
2023/05/31 09:56:09;;;;;;;8.95;4.50;;;;;;;-140.66;100.00;55571.53;5112939;28;20386;-85
2023/05/31 09:58:56;;;;;;;6.90;4.15;;;;;;;-140.66;100.00;55571.53;5112299;28;20049;-85
2023/05/31 10:01:44;;;;;;;5.70;3.92;;;;;;;-140.66;100.00;55571.53;5130447;28;20226;-85
2023/05/31 10:04:30;;;;;;;7.65;4.05;;;;;;;-140.66;100.00;55571.53;5115188;28;20031;-85
2023/05/31 10:07:18;;;;;;;8.30;4.00;;;;;;;-140.66;100.00;55571.53;5137049;28;20047;-85
2023/05/31 10:10:05;;;;;;;7.32;4.30;;;;;;;-140.66;100.00;55571.53;5112943;28;20055;-84
2023/05/31 10:12:53;;;;;;;5.40;3.80;;;;;;;-140.66;100.00;55571.53;5113557;28;20099;-85
2023/05/31 10:15:40;;;;;;;7.18;4.13;;;;;;;-140.66;100.00;55571.53;5131600;28;20367;-84
2023/05/31 10:18:30;;;;;;;10.80;3.92;;;;;;;-140.66;100.00;55571.53;5137910;28;20011;-83
2023/05/31 10:21:24;;;;;;;16.50;4.57;;;;;;;-140.66;100.00;55571.53;5136942;28;20023;-85
2023/05/31 10:24:23;;;;;;;10.50;4.20;;;;;;;-140.66;100.00;55571.53;5137271;28;20042;-85
2023/05/31 10:27:16;;;;;;;7.82;3.97;;;;;;;-140.66;100.00;55571.53;5133733;28;20107;-85
2023/05/31 10:30:06;;;;;;;8.75;4.35;;;;;;;-140.66;100.00;55571.53;5131961;28;20031;-85
2023/05/31 10:33:10;;;;;;;6.40;4.45;;;;;;;-140.66;100.00;55571.53;5118220;28;20027;-84
2023/05/31 10:36:00;;;;;;;8.98;3.85;;;;;;;-140.66;100.00;55571.53;5129094;28;20038;-85
2023/05/31 10:38:55;;;;;;;8.90;4.13;;;;;;;-140.66;100.00;55571.53;5128187;28;20497;-85
2023/05/31 10:41:48;;;;;;;9.88;3.92;;;;;;;-140.66;100.00;55571.53;5117098;28;20411;-84
2023/05/31 10:44:44;;;;;;;7.70;4.05;;;;;;;-140.66;100.00;55571.53;5115701;28;20028;-85
2023/05/31 10:47:57;;;;;;;6.78;3.50;;;;;;;-140.66;100.00;55571.53;5138661;28;20038;-84
2023/05/31 10:51:10;;;;;;;7.13;3.95;;;;;;;-140.66;100.00;55571.53;5137912;28;20061;-85
2023/05/31 10:53:56;;;;;;;8.68;3.75;;;;;;;-140.66;100.00;55571.53;5124946;28;20027;-84
2023/05/31 10:56:54;;;;;;;6.25;3.88;;;;;;;-140.66;100.00;55571.53;5137745;28;20023;-85
2023/05/31 10:59:44;;;;;;;48.65;6.80;;;;;;;-140.66;100.00;55571.53;5133323;28;20095;-86
2023/05/31 11:02:30;;;;;;;5.32;3.53;;;;;;;-140.66;100.00;55571.53;5113082;28;20098;-85
2023/05/31 11:05:21;;;;;;;6.78;3.88;;;;;;;-140.66;100.00;55571.53;5130016;28;20455;-85
2023/05/31 11:08:13;;;;;;;7.30;4.10;;;;;;;-140.66;100.00;55571.53;5118241;28;20036;-84
2023/05/31 11:11:27;;;;;;;5.97;3.63;;;;;;;-140.66;100.00;55571.53;5117535;28;20044;-85
2023/05/31 11:14:15;;;;;;;5.40;3.25;;;;;;;-140.66;100.00;55571.53;5125981;28;20059;-76
2023/05/31 11:17:03;;;;;;;8.13;3.95;;;;;;;-140.66;100.00;55571.53;5101564;28;20038;-74
2023/05/31 11:19:52;;;;;;;4.07;3.53;;;;;;;-140.66;100.00;55571.53;5101844;28;20316;-74
2023/05/31 11:22:37;;;;;;;4.93;3.30;;;;;;;-140.66;100.00;55571.53;5102303;28;20402;-75
2023/05/31 11:25:23;;;;;;;8.90;4.00;;;;;;;-140.66;100.00;55571.53;5116551;28;20020;-75
2023/05/31 11:28:10;;;;;;;8.80;4.05;;;;;;;-140.66;100.00;55571.53;5102504;28;20024;-74
2023/05/31 11:30:56;;;;;;;5.88;3.80;;;;;;;-140.66;100.00;55571.53;5117043;28;20110;-75
2023/05/31 11:33:45;;;;;;;9.32;3.78;;;;;;;-140.66;100.00;55571.53;5116840;28;20512;-75
2023/05/31 11:36:31;;;;;;;35.88;6.07;;;;;;;-140.66;100.00;55571.53;5120005;28;20059;-84
2023/05/31 11:39:18;;;;;;;9.30;3.85;;;;;;;-140.66;100.00;55571.53;5131477;28;20422;-85
2023/05/31 11:42:07;;;;;;;8.45;3.92;;;;;;;-140.66;100.00;55571.53;5107918;28;20012;-84
2023/05/31 11:44:54;;;;;;;6.93;3.92;;;;;;;-140.66;100.00;55571.53;5110384;28;20081;-85
2023/05/31 11:48:07;;;;;;;11.88;4.35;;;;;;;-140.66;100.00;55571.53;5116068;28;20028;-84
2023/05/31 11:50:55;;;;;;;7.28;4.15;;;;;;;-140.66;100.00;55571.53;5134585;28;20443;-85
2023/05/31 11:53:41;;;;;;;7.45;3.63;;;;;;;-140.66;100.00;55571.53;5117866;28;20028;-80
2023/05/31 11:56:32;;;;;;;8.27;3.97;;;;;;;-140.66;100.00;55571.53;5112100;28;20035;-84
2023/05/31 11:59:18;;;;;;;8.52;4.10;;;;;;;-140.66;100.00;55571.53;5130011;28;20500;-82
2023/05/31 12:02:06;;;;;;;9.45;4.30;;;;;;;-140.66;100.00;55571.53;5107697;28;20028;-81
2023/05/31 12:04:52;;;;;;;9.75;4.35;;;;;;;-140.66;100.00;55571.53;5113883;28;20031;-81
2023/05/31 12:07:38;;;;;;;7.65;3.72;;;;;;;-140.66;100.00;55571.53;5118058;28;20368;-82
2023/05/31 12:10:28;;;;;;;11.63;4.20;;;;;;;-140.66;100.00;55571.53;5104798;28;20031;-82
2023/05/31 12:13:17;;;;;;;13.05;3.72;;;;;;;-140.66;100.00;55571.53;5079358;28;20349;-84
2023/05/31 12:16:04;;;;;;;6.07;3.67;;;;;;;-140.66;100.00;55571.53;5080201;28;20471;-83
2023/05/31 12:18:54;;;;;;;8.52;3.60;;;;;;;-140.66;100.00;55571.53;5093358;28;20103;-83
2023/05/31 12:21:41;;;;;;;10.88;3.70;;;;;;;-140.66;100.00;55571.53;5081436;28;20111;-82
2023/05/31 12:24:27;;;;;;;12.60;4.05;;;;;;;-140.66;100.00;55571.53;5101088;28;20046;-82
2023/05/31 12:27:13;;;;;;;9.30;3.50;;;;;;;-140.66;100.00;55571.53;5135000;28;20032;-81
2023/05/31 12:30:00;;;;;;;7.55;3.65;;;;;;;-140.66;100.00;55571.53;5104152;28;20027;-82
2023/05/31 12:32:46;;;;;;;10.60;4.28;;;;;;;-140.66;100.00;55571.53;5116327;28;20020;-83